sensor_id;sensor_type;location;lat;lon;timestamp;P1;durP1;ratioP1;P2;durP2;ratioP2
16037;SDS011;8123;50.906;6.172;2022-12-07T00:01:34;46.87;;;23.23;;
16037;SDS011;8123;50.906;6.172;2022-12-07T00:04:03;48.03;;;22.30;;
16037;SDS011;8123;50.906;6.172;2022-12-07T00:06:33;46.30;;;23.97;;
16037;SDS011;8123;50.906;6.172;2022-12-07T00:09:00;45.40;;;24.20;;
16037;SDS011;8123;50.906;6.172;2022-12-07T00:11:26;44.47;;;23.80;;
16037;SDS011;8123;50.906;6.172;2022-12-07T00:13:53;39.97;;;21.50;;
16037;SDS011;8123;50.906;6.172;2022-12-07T00:16:21;41.80;;;21.73;;
16037;SDS011;8123;50.906;6.172;2022-12-07T00:18:48;46.13;;;24.80;;
16037;SDS011;8123;50.906;6.172;2022-12-07T00:23:44;49.03;;;26.43;;
16037;SDS011;8123;50.906;6.172;2022-12-07T00:26:21;41.90;;;22.57;;
16037;SDS011;8123;50.906;6.172;2022-12-07T00:28:51;52.67;;;25.70;;
16037;SDS011;8123;50.906;6.172;2022-12-07T00:31:20;43.67;;;23.90;;
16037;SDS011;8123;50.906;6.172;2022-12-07T00:33:47;44.77;;;22.57;;
16037;SDS011;8123;50.906;6.172;2022-12-07T00:36:14;46.70;;;22.27;;
16037;SDS011;8123;50.906;6.172;2022-12-07T00:38:41;42.67;;;20.97;;
16037;SDS011;8123;50.906;6.172;2022-12-07T00:41:10;42.37;;;22.27;;
16037;SDS011;8123;50.906;6.172;2022-12-07T00:43:46;47.83;;;22.17;;
16037;SDS011;8123;50.906;6.172;2022-12-07T00:46:13;45.73;;;22.03;;
16037;SDS011;8123;50.906;6.172;2022-12-07T00:48:39;46.17;;;23.73;;
16037;SDS011;8123;50.906;6.172;2022-12-07T00:51:06;47.70;;;23.80;;
16037;SDS011;8123;50.906;6.172;2022-12-07T00:53:35;51.57;;;24.23;;
16037;SDS011;8123;50.906;6.172;2022-12-07T00:56:09;49.83;;;24.40;;
16037;SDS011;8123;50.906;6.172;2022-12-07T00:58:39;52.80;;;24.27;;
16037;SDS011;8123;50.906;6.172;2022-12-07T01:01:05;40.90;;;23.10;;
16037;SDS011;8123;50.906;6.172;2022-12-07T01:03:33;52.03;;;24.20;;
16037;SDS011;8123;50.906;6.172;2022-12-07T01:05:59;40.27;;;22.53;;
16037;SDS011;8123;50.906;6.172;2022-12-07T01:08:25;41.17;;;21.97;;
16037;SDS011;8123;50.906;6.172;2022-12-07T01:11:02;39.30;;;20.00;;
16037;SDS011;8123;50.906;6.172;2022-12-07T01:13:30;44.93;;;22.77;;
16037;SDS011;8123;50.906;6.172;2022-12-07T01:15:56;36.27;;;20.10;;
16037;SDS011;8123;50.906;6.172;2022-12-07T01:18:25;35.93;;;19.53;;
16037;SDS011;8123;50.906;6.172;2022-12-07T01:21:01;36.40;;;18.60;;
16037;SDS011;8123;50.906;6.172;2022-12-07T01:23:35;38.70;;;19.80;;
16037;SDS011;8123;50.906;6.172;2022-12-07T01:26:03;33.47;;;21.30;;
16037;SDS011;8123;50.906;6.172;2022-12-07T01:28:30;41.07;;;21.60;;
16037;SDS011;8123;50.906;6.172;2022-12-07T01:31:01;38.17;;;20.50;;
16037;SDS011;8123;50.906;6.172;2022-12-07T01:33:32;39.70;;;21.53;;
16037;SDS011;8123;50.906;6.172;2022-12-07T01:36:03;37.80;;;20.37;;
16037;SDS011;8123;50.906;6.172;2022-12-07T01:38:30;44.10;;;23.63;;
16037;SDS011;8123;50.906;6.172;2022-12-07T01:40:57;45.40;;;23.03;;
16037;SDS011;8123;50.906;6.172;2022-12-07T01:43:23;47.80;;;23.07;;
16037;SDS011;8123;50.906;6.172;2022-12-07T01:45:50;50.87;;;26.23;;
16037;SDS011;8123;50.906;6.172;2022-12-07T01:48:16;56.83;;;27.70;;
16037;SDS011;8123;50.906;6.172;2022-12-07T01:50:46;50.30;;;25.00;;
16037;SDS011;8123;50.906;6.172;2022-12-07T01:53:13;44.93;;;23.77;;
16037;SDS011;8123;50.906;6.172;2022-12-07T01:55:41;62.47;;;30.70;;
16037;SDS011;8123;50.906;6.172;2022-12-07T01:58:09;50.07;;;27.10;;
16037;SDS011;8123;50.906;6.172;2022-12-07T02:00:37;53.67;;;27.10;;
16037;SDS011;8123;50.906;6.172;2022-12-07T02:03:11;61.37;;;26.63;;
16037;SDS011;8123;50.906;6.172;2022-12-07T02:05:44;54.07;;;26.13;;
16037;SDS011;8123;50.906;6.172;2022-12-07T02:08:11;58.73;;;27.33;;
16037;SDS011;8123;50.906;6.172;2022-12-07T02:10:38;58.23;;;28.27;;
16037;SDS011;8123;50.906;6.172;2022-12-07T02:13:05;58.63;;;28.73;;
16037;SDS011;8123;50.906;6.172;2022-12-07T02:15:37;65.00;;;29.70;;
16037;SDS011;8123;50.906;6.172;2022-12-07T02:18:32;60.60;;;30.80;;
16037;SDS011;8123;50.906;6.172;2022-12-07T02:29:28;63.27;;;29.50;;
16037;SDS011;8123;50.906;6.172;2022-12-07T02:32:16;56.23;;;25.93;;
16037;SDS011;8123;50.906;6.172;2022-12-07T02:34:56;55.03;;;27.73;;
16037;SDS011;8123;50.906;6.172;2022-12-07T02:39:59;51.20;;;27.40;;
16037;SDS011;8123;50.906;6.172;2022-12-07T02:42:34;63.57;;;28.33;;
16037;SDS011;8123;50.906;6.172;2022-12-07T02:45:05;57.43;;;26.93;;
16037;SDS011;8123;50.906;6.172;2022-12-07T02:47:33;63.33;;;26.43;;
16037;SDS011;8123;50.906;6.172;2022-12-07T02:50:02;71.30;;;29.67;;
16037;SDS011;8123;50.906;6.172;2022-12-07T02:52:31;55.67;;;27.97;;
16037;SDS011;8123;50.906;6.172;2022-12-07T02:54:57;61.63;;;28.60;;
16037;SDS011;8123;50.906;6.172;2022-12-07T02:57:37;67.73;;;30.00;;
16037;SDS011;8123;50.906;6.172;2022-12-07T03:00:17;68.70;;;28.90;;
16037;SDS011;8123;50.906;6.172;2022-12-07T03:08:48;60.20;;;30.27;;
16037;SDS011;8123;50.906;6.172;2022-12-07T03:11:25;64.70;;;29.37;;
16037;SDS011;8123;50.906;6.172;2022-12-07T03:14:01;75.63;;;29.63;;
16037;SDS011;8123;50.906;6.172;2022-12-07T03:16:43;69.20;;;30.33;;
16037;SDS011;8123;50.906;6.172;2022-12-07T03:19:17;62.97;;;28.07;;
16037;SDS011;8123;50.906;6.172;2022-12-07T03:21:47;59.47;;;30.00;;
16037;SDS011;8123;50.906;6.172;2022-12-07T03:24:19;70.43;;;31.93;;
16037;SDS011;8123;50.906;6.172;2022-12-07T03:26:55;68.33;;;29.57;;
16037;SDS011;8123;50.906;6.172;2022-12-07T03:29:34;57.70;;;28.87;;
16037;SDS011;8123;50.906;6.172;2022-12-07T03:32:08;64.60;;;30.50;;
16037;SDS011;8123;50.906;6.172;2022-12-07T03:34:41;56.23;;;26.57;;
16037;SDS011;8123;50.906;6.172;2022-12-07T03:37:24;63.00;;;28.40;;
16037;SDS011;8123;50.906;6.172;2022-12-07T03:42:25;58.47;;;25.20;;
16037;SDS011;8123;50.906;6.172;2022-12-07T03:44:51;64.40;;;26.50;;
16037;SDS011;8123;50.906;6.172;2022-12-07T03:47:23;65.23;;;28.90;;
16037;SDS011;8123;50.906;6.172;2022-12-07T03:49:59;57.57;;;28.47;;
16037;SDS011;8123;50.906;6.172;2022-12-07T03:52:36;60.10;;;27.43;;
16037;SDS011;8123;50.906;6.172;2022-12-07T03:57:36;61.97;;;27.20;;
16037;SDS011;8123;50.906;6.172;2022-12-07T04:00:06;50.20;;;24.10;;
16037;SDS011;8123;50.906;6.172;2022-12-07T04:02:32;53.10;;;24.57;;
16037;SDS011;8123;50.906;6.172;2022-12-07T04:04:59;53.10;;;27.27;;
16037;SDS011;8123;50.906;6.172;2022-12-07T04:07:24;53.73;;;27.63;;
16037;SDS011;8123;50.906;6.172;2022-12-07T04:09:50;68.07;;;29.80;;
16037;SDS011;8123;50.906;6.172;2022-12-07T04:12:16;66.40;;;27.60;;
16037;SDS011;8123;50.906;6.172;2022-12-07T04:14:41;68.73;;;29.80;;
16037;SDS011;8123;50.906;6.172;2022-12-07T04:17:08;58.87;;;26.00;;
16037;SDS011;8123;50.906;6.172;2022-12-07T04:19:34;64.73;;;25.17;;
16037;SDS011;8123;50.906;6.172;2022-12-07T04:22:00;53.03;;;26.30;;
16037;SDS011;8123;50.906;6.172;2022-12-07T04:24:27;61.23;;;28.90;;
16037;SDS011;8123;50.906;6.172;2022-12-07T04:26:52;57.83;;;26.40;;
16037;SDS011;8123;50.906;6.172;2022-12-07T04:29:18;57.17;;;29.10;;
16037;SDS011;8123;50.906;6.172;2022-12-07T04:31:44;61.37;;;28.57;;
16037;SDS011;8123;50.906;6.172;2022-12-07T04:34:11;68.17;;;25.73;;
16037;SDS011;8123;50.906;6.172;2022-12-07T04:36:37;62.23;;;28.40;;
16037;SDS011;8123;50.906;6.172;2022-12-07T04:39:04;53.03;;;26.07;;
16037;SDS011;8123;50.906;6.172;2022-12-07T04:41:30;58.23;;;25.33;;
16037;SDS011;8123;50.906;6.172;2022-12-07T04:43:57;59.57;;;27.83;;
16037;SDS011;8123;50.906;6.172;2022-12-07T04:46:29;56.83;;;27.57;;
16037;SDS011;8123;50.906;6.172;2022-12-07T04:48:55;61.50;;;28.43;;
16037;SDS011;8123;50.906;6.172;2022-12-07T04:51:22;69.53;;;28.30;;
16037;SDS011;8123;50.906;6.172;2022-12-07T04:53:49;65.53;;;30.10;;
16037;SDS011;8123;50.906;6.172;2022-12-07T04:56:16;71.27;;;29.70;;
16037;SDS011;8123;50.906;6.172;2022-12-07T04:58:42;68.77;;;30.40;;
16037;SDS011;8123;50.906;6.172;2022-12-07T05:01:08;55.37;;;27.00;;
16037;SDS011;8123;50.906;6.172;2022-12-07T05:03:35;60.43;;;31.50;;
16037;SDS011;8123;50.906;6.172;2022-12-07T05:06:02;64.60;;;30.43;;
16037;SDS011;8123;50.906;6.172;2022-12-07T05:08:28;76.83;;;29.20;;
16037;SDS011;8123;50.906;6.172;2022-12-07T05:10:54;60.47;;;26.70;;
16037;SDS011;8123;50.906;6.172;2022-12-07T05:13:19;67.13;;;28.70;;
16037;SDS011;8123;50.906;6.172;2022-12-07T05:15:46;55.37;;;27.00;;
16037;SDS011;8123;50.906;6.172;2022-12-07T05:18:12;68.53;;;28.67;;
16037;SDS011;8123;50.906;6.172;2022-12-07T05:20:38;66.33;;;29.47;;
16037;SDS011;8123;50.906;6.172;2022-12-07T05:23:04;60.17;;;27.77;;
16037;SDS011;8123;50.906;6.172;2022-12-07T05:25:30;60.40;;;28.47;;
16037;SDS011;8123;50.906;6.172;2022-12-07T05:27:56;58.77;;;28.47;;
16037;SDS011;8123;50.906;6.172;2022-12-07T05:30:22;63.90;;;29.47;;
16037;SDS011;8123;50.906;6.172;2022-12-07T05:32:49;70.60;;;27.97;;
16037;SDS011;8123;50.906;6.172;2022-12-07T05:35:15;58.60;;;25.27;;
16037;SDS011;8123;50.906;6.172;2022-12-07T05:37:41;61.07;;;28.30;;
16037;SDS011;8123;50.906;6.172;2022-12-07T05:40:07;50.87;;;25.40;;
16037;SDS011;8123;50.906;6.172;2022-12-07T05:42:33;61.83;;;26.70;;
16037;SDS011;8123;50.906;6.172;2022-12-07T05:44:59;56.83;;;25.83;;
16037;SDS011;8123;50.906;6.172;2022-12-07T05:47:25;64.40;;;25.80;;
16037;SDS011;8123;50.906;6.172;2022-12-07T05:49:50;59.77;;;24.77;;
16037;SDS011;8123;50.906;6.172;2022-12-07T05:52:16;55.17;;;26.23;;
16037;SDS011;8123;50.906;6.172;2022-12-07T05:54:41;54.33;;;25.07;;
16037;SDS011;8123;50.906;6.172;2022-12-07T05:57:07;57.37;;;24.60;;
16037;SDS011;8123;50.906;6.172;2022-12-07T05:59:33;51.10;;;21.90;;
16037;SDS011;8123;50.906;6.172;2022-12-07T06:04:27;53.10;;;23.87;;
16037;SDS011;8123;50.906;6.172;2022-12-07T06:06:54;43.87;;;23.40;;
16037;SDS011;8123;50.906;6.172;2022-12-07T06:09:21;48.87;;;23.40;;
16037;SDS011;8123;50.906;6.172;2022-12-07T06:11:48;59.13;;;22.50;;
16037;SDS011;8123;50.906;6.172;2022-12-07T06:14:32;54.30;;;23.93;;
16037;SDS011;8123;50.906;6.172;2022-12-07T06:16:58;49.17;;;25.50;;
16037;SDS011;8123;50.906;6.172;2022-12-07T06:19:24;56.13;;;23.30;;
16037;SDS011;8123;50.906;6.172;2022-12-07T06:21:50;54.60;;;26.37;;
16037;SDS011;8123;50.906;6.172;2022-12-07T06:24:16;49.57;;;25.70;;
16037;SDS011;8123;50.906;6.172;2022-12-07T06:26:43;59.87;;;27.00;;
16037;SDS011;8123;50.906;6.172;2022-12-07T06:29:10;53.20;;;23.83;;
16037;SDS011;8123;50.906;6.172;2022-12-07T06:31:36;61.87;;;25.53;;
16037;SDS011;8123;50.906;6.172;2022-12-07T06:34:03;45.50;;;23.80;;
16037;SDS011;8123;50.906;6.172;2022-12-07T06:36:31;66.67;;;27.23;;
16037;SDS011;8123;50.906;6.172;2022-12-07T06:38:57;50.77;;;26.23;;
16037;SDS011;8123;50.906;6.172;2022-12-07T06:41:22;60.43;;;24.03;;
16037;SDS011;8123;50.906;6.172;2022-12-07T06:43:49;59.13;;;26.57;;
16037;SDS011;8123;50.906;6.172;2022-12-07T06:46:15;62.40;;;25.43;;
16037;SDS011;8123;50.906;6.172;2022-12-07T06:48:41;61.93;;;25.87;;
16037;SDS011;8123;50.906;6.172;2022-12-07T06:51:08;46.63;;;24.13;;
16037;SDS011;8123;50.906;6.172;2022-12-07T06:53:34;55.63;;;24.63;;
16037;SDS011;8123;50.906;6.172;2022-12-07T06:56:00;51.43;;;25.27;;
16037;SDS011;8123;50.906;6.172;2022-12-07T06:58:26;56.87;;;25.60;;
16037;SDS011;8123;50.906;6.172;2022-12-07T07:00:52;48.67;;;23.20;;
16037;SDS011;8123;50.906;6.172;2022-12-07T07:03:18;54.60;;;25.77;;
16037;SDS011;8123;50.906;6.172;2022-12-07T07:05:44;58.57;;;26.30;;
16037;SDS011;8123;50.906;6.172;2022-12-07T07:08:10;54.90;;;25.67;;
16037;SDS011;8123;50.906;6.172;2022-12-07T07:10:36;66.13;;;25.73;;
16037;SDS011;8123;50.906;6.172;2022-12-07T07:13:02;45.23;;;23.57;;
16037;SDS011;8123;50.906;6.172;2022-12-07T07:15:28;57.73;;;26.33;;
16037;SDS011;8123;50.906;6.172;2022-12-07T07:17:54;52.17;;;22.67;;
16037;SDS011;8123;50.906;6.172;2022-12-07T07:20:20;46.13;;;23.57;;
16037;SDS011;8123;50.906;6.172;2022-12-07T07:22:47;57.67;;;26.40;;
16037;SDS011;8123;50.906;6.172;2022-12-07T07:25:13;49.90;;;23.33;;
16037;SDS011;8123;50.906;6.172;2022-12-07T07:27:39;55.70;;;25.83;;
16037;SDS011;8123;50.906;6.172;2022-12-07T07:30:04;60.27;;;26.37;;
16037;SDS011;8123;50.906;6.172;2022-12-07T07:32:31;67.18;;;31.40;;
16037;SDS011;8123;50.906;6.172;2022-12-07T07:34:56;57.80;;;26.60;;
16037;SDS011;8123;50.906;6.172;2022-12-07T07:37:22;61.90;;;26.83;;
16037;SDS011;8123;50.906;6.172;2022-12-07T07:39:48;56.03;;;25.27;;
16037;SDS011;8123;50.906;6.172;2022-12-07T07:42:14;51.53;;;25.07;;
16037;SDS011;8123;50.906;6.172;2022-12-07T07:44:40;60.03;;;25.77;;
16037;SDS011;8123;50.906;6.172;2022-12-07T07:47:06;53.33;;;24.83;;
16037;SDS011;8123;50.906;6.172;2022-12-07T07:49:32;61.17;;;26.17;;
16037;SDS011;8123;50.906;6.172;2022-12-07T07:51:58;64.30;;;28.20;;
16037;SDS011;8123;50.906;6.172;2022-12-07T07:54:23;56.07;;;27.30;;
16037;SDS011;8123;50.906;6.172;2022-12-07T07:56:49;62.43;;;25.60;;
16037;SDS011;8123;50.906;6.172;2022-12-07T07:59:15;66.57;;;28.47;;
16037;SDS011;8123;50.906;6.172;2022-12-07T08:01:40;65.30;;;25.47;;
16037;SDS011;8123;50.906;6.172;2022-12-07T08:04:06;59.93;;;25.77;;
16037;SDS011;8123;50.906;6.172;2022-12-07T08:06:35;62.50;;;28.47;;
16037;SDS011;8123;50.906;6.172;2022-12-07T08:09:01;62.30;;;27.37;;
16037;SDS011;8123;50.906;6.172;2022-12-07T08:11:27;61.17;;;28.10;;
16037;SDS011;8123;50.906;6.172;2022-12-07T08:13:53;70.20;;;27.37;;
16037;SDS011;8123;50.906;6.172;2022-12-07T08:16:18;66.20;;;27.70;;
16037;SDS011;8123;50.906;6.172;2022-12-07T08:18:44;78.87;;;30.83;;
16037;SDS011;8123;50.906;6.172;2022-12-07T08:21:13;61.60;;;28.07;;
16037;SDS011;8123;50.906;6.172;2022-12-07T08:23:40;81.00;;;27.90;;
16037;SDS011;8123;50.906;6.172;2022-12-07T08:26:08;54.20;;;26.07;;
16037;SDS011;8123;50.906;6.172;2022-12-07T08:28:35;47.57;;;24.80;;
16037;SDS011;8123;50.906;6.172;2022-12-07T08:31:02;53.30;;;27.17;;
16037;SDS011;8123;50.906;6.172;2022-12-07T08:33:30;58.10;;;23.80;;
16037;SDS011;8123;50.906;6.172;2022-12-07T08:36:04;50.33;;;25.93;;
16037;SDS011;8123;50.906;6.172;2022-12-07T08:38:31;49.20;;;22.90;;
16037;SDS011;8123;50.906;6.172;2022-12-07T08:40:57;53.27;;;24.47;;
16037;SDS011;8123;50.906;6.172;2022-12-07T08:43:24;44.83;;;22.00;;
16037;SDS011;8123;50.906;6.172;2022-12-07T08:45:56;50.10;;;22.80;;
16037;SDS011;8123;50.906;6.172;2022-12-07T08:48:27;55.53;;;22.63;;
16037;SDS011;8123;50.906;6.172;2022-12-07T08:50:53;49.70;;;21.90;;
16037;SDS011;8123;50.906;6.172;2022-12-07T08:53:18;56.37;;;23.17;;
16037;SDS011;8123;50.906;6.172;2022-12-07T08:55:45;43.27;;;20.90;;
16037;SDS011;8123;50.906;6.172;2022-12-07T08:58:12;37.93;;;18.73;;
16037;SDS011;8123;50.906;6.172;2022-12-07T09:00:37;57.03;;;23.10;;
16037;SDS011;8123;50.906;6.172;2022-12-07T09:03:03;44.30;;;20.93;;
16037;SDS011;8123;50.906;6.172;2022-12-07T09:05:29;43.73;;;20.10;;
16037;SDS011;8123;50.906;6.172;2022-12-07T09:07:55;34.67;;;18.33;;
16037;SDS011;8123;50.906;6.172;2022-12-07T09:10:25;44.93;;;18.43;;
16037;SDS011;8123;50.906;6.172;2022-12-07T09:12:51;48.80;;;19.97;;
16037;SDS011;8123;50.906;6.172;2022-12-07T09:15:17;41.57;;;19.37;;
16037;SDS011;8123;50.906;6.172;2022-12-07T09:17:42;35.73;;;18.27;;
16037;SDS011;8123;50.906;6.172;2022-12-07T09:20:08;39.57;;;18.70;;
16037;SDS011;8123;50.906;6.172;2022-12-07T09:22:34;36.03;;;17.33;;
16037;SDS011;8123;50.906;6.172;2022-12-07T09:25:00;47.40;;;19.93;;
16037;SDS011;8123;50.906;6.172;2022-12-07T09:27:27;41.67;;;18.33;;
16037;SDS011;8123;50.906;6.172;2022-12-07T09:29:53;40.73;;;19.73;;
16037;SDS011;8123;50.906;6.172;2022-12-07T09:32:19;42.90;;;19.90;;
16037;SDS011;8123;50.906;6.172;2022-12-07T09:34:45;44.77;;;19.70;;
16037;SDS011;8123;50.906;6.172;2022-12-07T09:37:10;40.97;;;20.70;;
16037;SDS011;8123;50.906;6.172;2022-12-07T09:39:39;47.97;;;22.70;;
16037;SDS011;8123;50.906;6.172;2022-12-07T09:42:06;43.70;;;20.40;;
16037;SDS011;8123;50.906;6.172;2022-12-07T09:44:33;53.47;;;23.80;;
16037;SDS011;8123;50.906;6.172;2022-12-07T09:46:59;56.03;;;23.47;;
16037;SDS011;8123;50.906;6.172;2022-12-07T09:49:27;50.27;;;23.10;;
16037;SDS011;8123;50.906;6.172;2022-12-07T09:52:38;48.17;;;22.67;;
16037;SDS011;8123;50.906;6.172;2022-12-07T09:54:50;44.80;;;22.20;;
16037;SDS011;8123;50.906;6.172;2022-12-07T09:57:16;49.37;;;24.87;;
16037;SDS011;8123;50.906;6.172;2022-12-07T09:59:43;46.73;;;23.43;;
16037;SDS011;8123;50.906;6.172;2022-12-07T10:04:59;57.30;;;24.00;;
16037;SDS011;8123;50.906;6.172;2022-12-07T10:07:25;54.53;;;22.00;;
16037;SDS011;8123;50.906;6.172;2022-12-07T10:09:51;44.97;;;21.00;;
16037;SDS011;8123;50.906;6.172;2022-12-07T10:12:16;54.90;;;23.30;;
16037;SDS011;8123;50.906;6.172;2022-12-07T10:17:41;61.80;;;30.83;;
16037;SDS011;8123;50.906;6.172;2022-12-07T10:20:15;51.83;;;23.63;;
16037;SDS011;8123;50.906;6.172;2022-12-07T10:22:54;56.40;;;24.30;;
16037;SDS011;8123;50.906;6.172;2022-12-07T10:25:25;53.37;;;25.17;;
16037;SDS011;8123;50.906;6.172;2022-12-07T10:28:03;53.47;;;26.07;;
16037;SDS011;8123;50.906;6.172;2022-12-07T10:30:45;52.30;;;25.53;;
16037;SDS011;8123;50.906;6.172;2022-12-07T10:33:27;50.93;;;24.30;;
16037;SDS011;8123;50.906;6.172;2022-12-07T10:35:54;46.57;;;22.20;;
16037;SDS011;8123;50.906;6.172;2022-12-07T10:38:20;53.57;;;25.97;;
16037;SDS011;8123;50.906;6.172;2022-12-07T10:40:46;50.50;;;23.03;;
16037;SDS011;8123;50.906;6.172;2022-12-07T10:57:16;39.07;;;20.03;;
16037;SDS011;8123;50.906;6.172;2022-12-07T11:02:38;48.43;;;21.50;;
16037;SDS011;8123;50.906;6.172;2022-12-07T11:05:16;53.63;;;23.23;;
16037;SDS011;8123;50.906;6.172;2022-12-07T11:12:09;51.10;;;22.57;;
16037;SDS011;8123;50.906;6.172;2022-12-07T11:14:31;42.47;;;21.17;;
16037;SDS011;8123;50.906;6.172;2022-12-07T11:20:37;36.90;;;19.90;;
16037;SDS011;8123;50.906;6.172;2022-12-07T11:23:41;43.20;;;17.70;;
16037;SDS011;8123;50.906;6.172;2022-12-07T11:26:25;42.47;;;20.97;;
16037;SDS011;8123;50.906;6.172;2022-12-07T11:29:14;46.00;;;21.10;;
16037;SDS011;8123;50.906;6.172;2022-12-07T11:37:30;33.03;;;18.10;;
16037;SDS011;8123;50.906;6.172;2022-12-07T11:40:08;47.23;;;19.80;;
16037;SDS011;8123;50.906;6.172;2022-12-07T11:42:55;37.67;;;18.43;;
16037;SDS011;8123;50.906;6.172;2022-12-07T11:45:32;37.53;;;17.00;;
16037;SDS011;8123;50.906;6.172;2022-12-07T11:48:03;42.47;;;17.50;;
16037;SDS011;8123;50.906;6.172;2022-12-07T11:50:44;33.47;;;18.40;;
16037;SDS011;8123;50.906;6.172;2022-12-07T11:53:24;28.90;;;16.60;;
16037;SDS011;8123;50.906;6.172;2022-12-07T11:56:08;33.93;;;14.30;;
16037;SDS011;8123;50.906;6.172;2022-12-07T11:58:42;29.43;;;14.10;;
16037;SDS011;8123;50.906;6.172;2022-12-07T12:03:55;31.37;;;16.73;;
16037;SDS011;8123;50.906;6.172;2022-12-07T12:06:34;36.33;;;15.23;;
16037;SDS011;8123;50.906;6.172;2022-12-07T12:22:41;21.67;;;12.03;;
16037;SDS011;8123;50.906;6.172;2022-12-07T12:25:20;21.60;;;10.23;;
16037;SDS011;8123;50.906;6.172;2022-12-07T12:27:49;16.50;;;10.40;;
16037;SDS011;8123;50.906;6.172;2022-12-07T12:30:29;25.30;;;9.93;;
16037;SDS011;8123;50.906;6.172;2022-12-07T12:33:06;19.50;;;10.70;;
16037;SDS011;8123;50.906;6.172;2022-12-07T12:35:41;18.70;;;10.23;;
16037;SDS011;8123;50.906;6.172;2022-12-07T12:40:54;21.60;;;11.37;;
16037;SDS011;8123;50.906;6.172;2022-12-07T12:43:40;17.90;;;10.00;;
16037;SDS011;8123;50.906;6.172;2022-12-07T12:51:49;22.67;;;10.10;;
16037;SDS011;8123;50.906;6.172;2022-12-07T12:59:56;25.30;;;11.23;;
16037;SDS011;8123;50.906;6.172;2022-12-07T13:12:59;20.27;;;9.00;;
16037;SDS011;8123;50.906;6.172;2022-12-07T13:23:28;16.50;;;8.10;;
16037;SDS011;8123;50.906;6.172;2022-12-07T13:28:51;15.07;;;8.70;;
16037;SDS011;8123;50.906;6.172;2022-12-07T13:31:38;13.63;;;9.27;;
16037;SDS011;8123;50.906;6.172;2022-12-07T13:36:56;28.10;;;11.10;;
16037;SDS011;8123;50.906;6.172;2022-12-07T13:39:23;20.83;;;9.63;;
16037;SDS011;8123;50.906;6.172;2022-12-07T13:41:54;19.27;;;8.90;;
16037;SDS011;8123;50.906;6.172;2022-12-07T13:44:22;16.87;;;9.50;;
16037;SDS011;8123;50.906;6.172;2022-12-07T13:49:37;18.03;;;10.00;;
16037;SDS011;8123;50.906;6.172;2022-12-07T13:52:28;22.17;;;9.77;;
16037;SDS011;8123;50.906;6.172;2022-12-07T13:54:57;22.20;;;9.60;;
16037;SDS011;8123;50.906;6.172;2022-12-07T13:57:26;25.30;;;11.50;;
16037;SDS011;8123;50.906;6.172;2022-12-07T13:59:53;15.33;;;9.73;;
16037;SDS011;8123;50.906;6.172;2022-12-07T14:02:29;20.67;;;10.43;;
16037;SDS011;8123;50.906;6.172;2022-12-07T14:07:52;22.07;;;10.60;;
16037;SDS011;8123;50.906;6.172;2022-12-07T14:10:24;24.20;;;11.47;;
16037;SDS011;8123;50.906;6.172;2022-12-07T14:12:54;19.50;;;11.30;;
16037;SDS011;8123;50.906;6.172;2022-12-07T14:15:21;16.07;;;10.47;;
16037;SDS011;8123;50.906;6.172;2022-12-07T14:17:58;25.43;;;11.17;;
16037;SDS011;8123;50.906;6.172;2022-12-07T14:22:56;26.43;;;10.83;;
16037;SDS011;8123;50.906;6.172;2022-12-07T14:25:22;26.50;;;11.53;;
16037;SDS011;8123;50.906;6.172;2022-12-07T14:27:57;20.53;;;11.73;;
16037;SDS011;8123;50.906;6.172;2022-12-07T14:30:27;20.80;;;11.03;;
16037;SDS011;8123;50.906;6.172;2022-12-07T14:32:57;21.17;;;12.80;;
16037;SDS011;8123;50.906;6.172;2022-12-07T14:35:27;27.13;;;11.90;;
16037;SDS011;8123;50.906;6.172;2022-12-07T14:37:54;26.30;;;11.00;;
16037;SDS011;8123;50.906;6.172;2022-12-07T14:40:21;27.10;;;12.23;;
16037;SDS011;8123;50.906;6.172;2022-12-07T14:42:51;32.43;;;12.90;;
16037;SDS011;8123;50.906;6.172;2022-12-07T14:45:46;28.57;;;12.83;;
16037;SDS011;8123;50.906;6.172;2022-12-07T14:48:13;22.50;;;12.40;;
16037;SDS011;8123;50.906;6.172;2022-12-07T14:50:42;33.17;;;13.60;;
16037;SDS011;8123;50.906;6.172;2022-12-07T14:53:14;22.03;;;11.93;;
16037;SDS011;8123;50.906;6.172;2022-12-07T14:55:41;36.43;;;13.17;;
16037;SDS011;8123;50.906;6.172;2022-12-07T14:58:16;26.93;;;12.43;;
16037;SDS011;8123;50.906;6.172;2022-12-07T15:00:43;20.33;;;10.17;;
16037;SDS011;8123;50.906;6.172;2022-12-07T15:03:09;18.30;;;9.67;;
16037;SDS011;8123;50.906;6.172;2022-12-07T15:05:35;23.93;;;11.13;;
16037;SDS011;8123;50.906;6.172;2022-12-07T15:08:02;26.43;;;11.13;;
16037;SDS011;8123;50.906;6.172;2022-12-07T15:10:29;19.93;;;11.00;;
16037;SDS011;8123;50.906;6.172;2022-12-07T15:12:57;24.00;;;9.57;;
16037;SDS011;8123;50.906;6.172;2022-12-07T15:15:44;18.30;;;10.20;;
16037;SDS011;8123;50.906;6.172;2022-12-07T15:18:09;13.10;;;8.50;;
16037;SDS011;8123;50.906;6.172;2022-12-07T15:20:35;15.70;;;10.37;;
16037;SDS011;8123;50.906;6.172;2022-12-07T15:23:01;15.77;;;8.80;;
16037;SDS011;8123;50.906;6.172;2022-12-07T15:25:26;15.93;;;9.00;;
16037;SDS011;8123;50.906;6.172;2022-12-07T15:27:52;10.87;;;8.00;;
16037;SDS011;8123;50.906;6.172;2022-12-07T15:30:18;12.53;;;8.10;;
16037;SDS011;8123;50.906;6.172;2022-12-07T15:32:43;19.67;;;9.20;;
16037;SDS011;8123;50.906;6.172;2022-12-07T15:35:09;20.10;;;9.13;;
16037;SDS011;8123;50.906;6.172;2022-12-07T15:37:34;21.30;;;12.30;;
16037;SDS011;8123;50.906;6.172;2022-12-07T15:40:00;18.90;;;7.80;;
16037;SDS011;8123;50.906;6.172;2022-12-07T15:42:26;14.47;;;7.57;;
16037;SDS011;8123;50.906;6.172;2022-12-07T15:44:52;8.93;;;6.00;;
16037;SDS011;8123;50.906;6.172;2022-12-07T15:47:30;11.63;;;6.00;;
16037;SDS011;8123;50.906;6.172;2022-12-07T15:49:56;10.63;;;7.40;;
16037;SDS011;8123;50.906;6.172;2022-12-07T15:52:22;12.57;;;7.30;;
16037;SDS011;8123;50.906;6.172;2022-12-07T15:54:47;11.17;;;7.80;;
16037;SDS011;8123;50.906;6.172;2022-12-07T15:57:13;13.93;;;7.70;;
16037;SDS011;8123;50.906;6.172;2022-12-07T15:59:39;18.60;;;7.07;;
16037;SDS011;8123;50.906;6.172;2022-12-07T16:02:05;23.13;;;7.53;;
16037;SDS011;8123;50.906;6.172;2022-12-07T16:04:30;14.90;;;8.50;;
16037;SDS011;8123;50.906;6.172;2022-12-07T16:06:56;13.30;;;6.97;;
16037;SDS011;8123;50.906;6.172;2022-12-07T16:09:22;12.67;;;8.10;;
16037;SDS011;8123;50.906;6.172;2022-12-07T16:11:48;10.97;;;6.80;;
16037;SDS011;8123;50.906;6.172;2022-12-07T16:14:15;13.43;;;7.70;;
16037;SDS011;8123;50.906;6.172;2022-12-07T16:16:40;16.93;;;8.07;;
16037;SDS011;8123;50.906;6.172;2022-12-07T16:19:07;24.87;;;8.17;;
16037;SDS011;8123;50.906;6.172;2022-12-07T16:21:33;16.60;;;8.00;;
16037;SDS011;8123;50.906;6.172;2022-12-07T16:24:00;17.20;;;6.50;;
16037;SDS011;8123;50.906;6.172;2022-12-07T16:26:26;13.60;;;7.67;;
16037;SDS011;8123;50.906;6.172;2022-12-07T16:28:52;11.37;;;7.10;;
16037;SDS011;8123;50.906;6.172;2022-12-07T16:31:19;12.20;;;7.23;;
16037;SDS011;8123;50.906;6.172;2022-12-07T16:33:46;21.27;;;9.10;;
16037;SDS011;8123;50.906;6.172;2022-12-07T16:36:14;13.20;;;8.80;;
16037;SDS011;8123;50.906;6.172;2022-12-07T16:38:41;11.90;;;7.17;;
16037;SDS011;8123;50.906;6.172;2022-12-07T16:41:07;13.83;;;7.40;;
16037;SDS011;8123;50.906;6.172;2022-12-07T16:43:34;16.90;;;8.27;;
16037;SDS011;8123;50.906;6.172;2022-12-07T16:46:00;14.33;;;8.90;;
16037;SDS011;8123;50.906;6.172;2022-12-07T16:48:26;12.60;;;7.33;;
16037;SDS011;8123;50.906;6.172;2022-12-07T16:50:52;21.50;;;8.20;;
16037;SDS011;8123;50.906;6.172;2022-12-07T16:53:22;19.53;;;7.93;;